KDSM

Des Moines International Airport

Des Moines, Iowa, USA
KDSM 252320Z 2600/2624 32005KT P6SM SCT250 FM261200 23004KT P6SM FEW250 FM261800 27008KT P6SM SCT240 FM262200 32011G19KT P6SM SCT140
Issued Valid From Valid To
Apr-25 @ 23:20 UTC
(5 hours ago)
Apr-26 @ 00:00 UTC
(4 hours ago)
Apr-27 @ 00:00 UTC
(in 20 hours)
Apr-26 @ 00:00 to Apr-26 @ 12:00
KDSM 252320Z 2600/2624 32005KT P6SM SCT250
Wind Visibility Clouds
320° at 5 knots Greater than 6 miles
  • Scattered at 25,000' AGL
From Apr-26 @ 12:00 to Apr-26 @ 18:00
FM261200 23004KT P6SM FEW250
Wind Visibility Clouds
230° at 4 knots Greater than 6 miles
  • Few at 25,000' AGL
From Apr-26 @ 18:00 to Apr-26 @ 22:00
FM261800 27008KT P6SM SCT240
Wind Visibility Clouds
270° at 8 knots Greater than 6 miles
  • Scattered at 24,000' AGL
From Apr-26 @ 22:00 to Apr-27 @ 00:00
FM262200 32011G19KT P6SM SCT140
Wind Visibility Clouds
320° at 11 knots
 Gusting to 19 knots
Greater than 6 miles
  • Scattered at 14,000' AGL
KDSM 252320Z 2600/2624 32005KT P6SM SCT250 FM261200 23004KT P6SM FEW250 FM261800 27008KT P6SM SCT240 FM262200 32011G19KT P6SM SCT140
Issued Apr-25 @ 23:20 UTC
(5 hours ago)
Valid From Apr-26 @ 00:00 UTC
(4 hours ago)
Valid To Apr-27 @ 00:00 UTC
(in 20 hours)
Apr-26 @ 00:00 - Apr-26 @ 12:00
Wind Visibility
320° at 5 knots Greater than 6 miles
Clouds
  • Scattered at 25,000' AGL
From Apr-26 @ 12:00 - Apr-26 @ 18:00
Wind Visibility
230° at 4 knots Greater than 6 miles
Clouds
  • Few at 25,000' AGL
From Apr-26 @ 18:00 - Apr-26 @ 22:00
Wind Visibility
270° at 8 knots Greater than 6 miles
Clouds
  • Scattered at 24,000' AGL
From Apr-26 @ 22:00 - Apr-27 @ 00:00
Wind Visibility
320° at 11 knots
 Gusting to 19 knots
Greater than 6 miles
Clouds
  • Scattered at 14,000' AGL